KMUO/MUO METAR and TAF weather

Enter ICAO airport designator
Station Type Date Time Source
KMUO METAR 2019/04/25 00:58 UTC NOAA

KMUO 250058Z AUTO 33019KT 10SM CLR 21/M10 A3004 RMK AO2 PK WND 33029/20 SLP165 T02061098 $


Station Type Date Time Source
KMUO Decoded METAR 2019/04/25 00:58 UTC NOAA

Mountain Home Air Force Base, ID, United States (KMUO) 43-03N 115-52W
Apr 24, 2019 - 08:58 PM EDT / 2019.04.25 0058 UTC
Wind: from the NNW (330 degrees) at 22 MPH (19 KT):0
Visibility: 10 mile(s):0
Sky conditions: clear
Temperature: 69.1 F (20.6 C)
Dew Point: 14.4 F (-9.8 C)
Relative Humidity: 11%
Pressure (altimeter): 30.04 in. Hg (1017 hPa)
ob: KMUO 250058Z AUTO 33019KT 10SM CLR 21/M10 A3004 RMK AO2 PK WND 33029/20 SLP165 T02061098
cycle: 1

Station Type Date Time Source
KMUO TAF 2019/04/24 18:08 UTC NOAA

TAF KMUO 241800Z 2418/2524 33012KT 9999 FEW050 BKN120 QNH3004INS
TEMPO 2418/2502 32015G25KT 510009
BECMG 2501/2502 31010G15KT 9999 FEW050 SCT120 510009 QNH2995INS
BECMG 2504/2505 31009KT 9999 SKC QNH2996INS WND VRB06KT AFT 14Z TX21/2421Z TN05/2412Z

Example: see airport list